Terminal Aerodrome Forecast
Issued by NWS

Home | Current Version | Previous Version | Text Only | Print | Product List | Glossary On
Versions: 1 2 3 4 5 6 7 8 9 10 11 12 13 14 15 16 17 18 19
000
FTUS41 KOKX 070521
TAFSWF
TAF
KSWF 070521Z 0706/0812 00000KT P6SM SKC
     FM071600 21004KT P6SM SKC
     FM071800 22008KT P6SM SKC
     FM072300 19005KT P6SM SKC
     FM080100 VRB03KT P6SM SKC
     FM080600 00000KT 6SM BR SKC
     FM080900 00000KT 5SM BR SKC
      AMD NOT SKED=

USA.gov is the U.S. government's official web portal to all federal, state and local government web resources and services.